Time;durP1;ratioP1;P1;durP2;ratioP2;P2;SDS_P1;SDS_P2;PMS_P1;PMS_P2;Temp;Humidity;BMP_temperature;BMP_pressure;BME280_temperature;BME280_humidity;BME280_pressure;Samples;Min_cycle;Max_cycle;Signal;HPM_P1;HPM_P2
2023/06/24 00:02:02;;;;;;;14.37;12.87;;;;;;;23.80;87.22;94867.94;5119899;28;20490;-83
2023/06/24 00:04:29;;;;;;;17.43;13.20;;;;;;;23.66;88.78;94867.16;5116885;28;20441;-84
2023/06/24 00:06:59;;;;;;;15.10;13.27;;;;;;;23.64;88.02;94876.44;5116658;28;21236;-84
2023/06/24 00:09:27;;;;;;;15.73;12.30;;;;;;;23.68;88.34;94873.09;5117087;28;20521;-84
2023/06/24 00:11:55;;;;;;;12.53;11.27;;;;;;;23.64;87.34;94865.72;5081637;28;20999;-85
2023/06/24 00:14:24;;;;;;;28.13;13.40;;;;;;;23.64;88.27;94860.34;5081273;28;20498;-84
2023/06/24 00:16:51;;;;;;;14.97;13.30;;;;;;;23.56;87.78;94864.09;5116825;28;20514;-84
2023/06/24 00:19:20;;;;;;;17.70;13.40;;;;;;;23.64;88.72;94863.03;5116729;28;20473;-84
2023/06/24 00:21:47;;;;;;;17.97;13.03;;;;;;;23.71;89.92;94866.53;5116436;28;20437;-84
2023/06/24 00:24:14;;;;;;;22.70;13.13;;;;;;;23.64;88.19;94860.34;5081459;28;20433;-85
2023/06/24 00:26:40;;;;;;;17.43;14.10;;;;;;;23.60;88.77;94857.28;5116620;28;20437;-84
2023/06/24 00:29:09;;;;;;;18.23;13.83;;;;;;;23.59;89.53;94852.94;5064791;28;20446;-84
2023/06/24 00:31:35;;;;;;;15.50;13.50;;;;;;;23.68;89.33;94866.94;5117205;28;20555;-84
2023/06/24 00:34:02;;;;;;;16.77;12.80;;;;;;;23.68;89.09;94872.28;5117100;28;20840;-84
2023/06/24 00:36:31;;;;;;;14.60;13.03;;;;;;;23.62;88.75;94873.13;5081031;28;20450;-85
2023/06/24 00:39:00;;;;;;;13.73;12.40;;;;;;;23.60;88.73;94862.63;5116373;28;20502;-84
2023/06/24 00:41:28;;;;;;;14.13;12.63;;;;;;;23.67;89.59;94868.78;5115972;28;20434;-84
2023/06/24 00:43:57;;;;;;;14.87;13.23;;;;;;;23.67;91.79;94871.47;5115784;28;20437;-84
2023/06/24 00:46:25;;;;;;;16.53;12.73;;;;;;;23.61;88.39;94874.16;5115793;28;20457;-84
2023/06/24 00:48:52;;;;;;;18.00;14.70;;;;;;;23.51;89.12;94863.06;5115921;28;20466;-84
2023/06/24 00:51:21;;;;;;;20.43;14.30;;;;;;;23.42;90.09;94863.28;5116657;28;20481;-85
2023/06/24 00:53:49;;;;;;;16.67;13.53;;;;;;;23.37;88.93;94860.38;5064675;28;20465;-84
2023/06/24 00:56:18;;;;;;;17.27;14.03;;;;;;;23.29;89.38;94863.31;5115844;28;20458;-84
2023/06/24 00:58:47;;;;;;;16.33;13.17;;;;;;;23.27;90.62;94873.41;5115736;28;20441;-84
2023/06/24 01:01:14;;;;;;;19.33;14.20;;;;;;;23.31;91.38;94865.78;5116213;28;20485;-84
2023/06/24 01:03:43;;;;;;;13.13;11.77;;;;;;;23.17;90.64;94867.66;5116096;28;20442;-84
2023/06/24 01:06:10;;;;;;;20.30;13.67;;;;;;;23.10;90.37;94861.47;5115655;28;20432;-84
2023/06/24 01:08:39;;;;;;;17.93;14.20;;;;;;;23.13;91.75;94856.53;5046730;28;20837;-85
2023/06/24 01:11:06;;;;;;;18.60;14.53;;;;;;;23.06;90.47;94854.88;5079973;28;20454;-85
2023/06/24 01:13:33;;;;;;;17.23;14.03;;;;;;;23.05;90.78;94856.75;5115553;28;20437;-85
2023/06/24 01:16:07;;;;;;;16.20;14.33;;;;;;;23.01;91.32;94852.84;5114758;28;20433;-83
2023/06/24 01:18:41;;;;;;;17.60;12.30;;;;;;;22.97;91.35;94848.09;5115550;28;20431;-83
2023/06/24 01:21:15;;;;;;;18.03;14.20;;;;;;;22.90;90.64;94853.47;5115187;28;20935;-84
2023/06/24 01:24:15;;;;;;;16.40;12.70;;;;;;;22.85;91.58;94858.63;5115480;28;20448;-84
2023/06/24 01:27:14;;;;;;;16.20;13.20;;;;;;;22.70;92.52;94861.47;5032511;28;20456;-84
2023/06/24 01:29:54;;;;;;;15.03;13.43;;;;;;;22.55;92.44;94850.13;4973886;28;20930;-84
2023/06/24 01:32:30;;;;;;;13.97;12.53;;;;;;;22.64;94.57;94843.56;4973621;28;20471;-85
2023/06/24 01:38:25;;;;;;;20.60;14.70;;;;;;;22.78;92.92;94847.88;4963696;28;20435;-84
2023/06/24 01:40:54;;;;;;;15.97;13.57;;;;;;;22.87;93.74;94843.19;4906783;29;20954;-84
2023/06/24 01:43:24;;;;;;;15.30;13.43;;;;;;;22.86;91.07;94852.25;4954225;29;20464;-85
2023/06/24 01:45:53;;;;;;;15.40;13.43;;;;;;;22.86;90.22;94845.03;4954778;29;20460;-84
2023/06/24 01:48:26;;;;;;;16.13;12.87;;;;;;;22.73;89.80;94847.66;4907447;29;20802;-84
2023/06/24 01:50:59;;;;;;;14.83;13.33;;;;;;;22.72;90.00;94853.22;4954349;29;20445;-84
2023/06/24 01:53:28;;;;;;;16.20;12.70;;;;;;;22.71;89.53;94851.59;4906562;29;20433;-84
2023/06/24 01:55:58;;;;;;;21.47;13.43;;;;;;;22.74;89.12;94861.88;4954106;29;20532;-84
2023/06/24 01:58:25;;;;;;;14.27;12.67;;;;;;;22.74;90.27;94865.38;4891859;29;20475;-84
2023/06/24 02:00:53;;;;;;;13.77;11.97;;;;;;;22.85;90.76;94883.53;4953142;29;20849;-84
2023/06/24 02:03:22;;;;;;;17.30;13.23;;;;;;;22.96;91.44;94879.41;4987698;28;20447;-84
2023/06/24 02:05:51;;;;;;;18.43;13.73;;;;;;;23.04;91.01;94871.16;5037727;28;20507;-84
2023/06/24 02:08:21;;;;;;;17.47;12.07;;;;;;;23.11;90.53;94871.16;5073751;28;20928;-84
2023/06/24 02:10:49;;;;;;;14.17;12.60;;;;;;;23.21;89.79;94870.75;5074700;28;20478;-84
2023/06/24 02:13:17;;;;;;;13.90;12.00;;;;;;;23.26;89.71;94885.13;5073618;28;20478;-84
2023/06/24 02:15:46;;;;;;;16.10;14.00;;;;;;;23.26;89.48;94885.13;5073554;28;20845;-84
2023/06/24 02:18:15;;;;;;;14.27;12.60;;;;;;;23.21;88.23;94897.50;5073552;28;20439;-84
2023/06/24 02:20:44;;;;;;;14.73;12.17;;;;;;;23.16;90.04;94884.75;5073586;28;20454;-85
2023/06/24 02:23:13;;;;;;;15.70;13.07;;;;;;;23.11;91.03;94877.31;5074438;28;20918;-84
2023/06/24 02:25:42;;;;;;;20.80;13.17;;;;;;;23.04;89.59;94881.03;5073365;28;20431;-84
2023/06/24 02:28:09;;;;;;;16.97;13.27;;;;;;;23.01;90.35;94882.28;5073842;28;20439;-85
2023/06/24 02:30:38;;;;;;;14.20;12.50;;;;;;;23.01;89.81;94884.13;5073782;28;20475;-84
2023/06/24 02:33:05;;;;;;;22.07;13.30;;;;;;;22.99;89.93;94891.53;5038419;28;20490;-85
2023/06/24 02:35:32;;;;;;;15.43;12.73;;;;;;;23.01;89.48;94906.38;5073556;28;20913;-84
2023/06/24 02:38:00;;;;;;;13.93;12.50;;;;;;;22.98;89.34;94914.81;5072298;28;20451;-84
2023/06/24 02:40:28;;;;;;;16.83;12.63;;;;;;;22.98;88.97;94925.53;5073941;28;20433;-84
2023/06/24 02:42:54;;;;;;;14.40;12.77;;;;;;;22.97;88.84;94929.22;5073467;28;21356;-84
2023/06/24 02:45:22;;;;;;;16.70;12.77;;;;;;;23.01;90.96;94943.00;5073494;28;20432;-84
2023/06/24 02:47:51;;;;;;;14.60;13.10;;;;;;;22.99;89.92;94945.06;5073632;28;20455;-84
2023/06/24 02:50:18;;;;;;;17.57;11.40;;;;;;;23.00;90.64;94944.88;5074566;28;20446;-85
2023/06/24 02:56:09;;;;;;;13.10;11.57;;;;;;;23.04;90.88;94939.94;5073178;28;20487;-85
2023/06/24 02:58:38;;;;;;;15.30;12.80;;;;;;;23.02;89.26;94937.47;5074302;28;20437;-84
2023/06/24 03:01:08;;;;;;;16.27;13.10;;;;;;;23.05;90.45;94937.03;5073501;28;20543;-84
2023/06/24 03:03:36;;;;;;;21.33;14.03;;;;;;;23.09;89.50;94954.34;5072611;28;20429;-84
2023/06/24 03:06:03;;;;;;;27.47;13.53;;;;;;;23.10;88.06;94958.66;5072686;28;20447;-84
2023/06/24 03:08:30;;;;;;;14.33;12.47;;;;;;;23.00;88.35;94955.56;5073924;28;20435;-84
2023/06/24 03:10:58;;;;;;;18.07;13.43;;;;;;;23.01;88.49;94956.41;5073086;28;20427;-83
2023/06/24 03:13:27;;;;;;;15.17;13.67;;;;;;;23.07;89.87;94955.56;5072995;28;20478;-84
2023/06/24 03:15:53;;;;;;;15.77;13.27;;;;;;;23.10;88.71;94952.47;5073508;28;20440;-84
2023/06/24 03:18:21;;;;;;;20.33;13.33;;;;;;;23.09;90.41;94946.31;5072916;28;20442;-84
2023/06/24 03:20:48;;;;;;;13.83;12.53;;;;;;;23.02;89.35;94942.00;5073839;28;20430;-84
2023/06/24 03:23:14;;;;;;;16.10;13.90;;;;;;;23.09;89.30;94953.50;5087736;28;20904;-83
2023/06/24 03:25:41;;;;;;;13.83;12.43;;;;;;;23.03;88.40;94949.00;5093559;28;20524;-84
2023/06/24 03:28:38;;;;;;;19.00;13.40;;;;;;;23.07;87.68;94952.91;5057857;28;20448;-84
2023/06/24 03:31:05;;;;;;;20.60;11.83;;;;;;;23.05;89.28;94957.63;5093353;28;20439;-84
2023/06/24 03:33:31;;;;;;;13.13;11.80;;;;;;;23.14;89.64;94956.41;5093020;28;20470;-85
2023/06/24 03:35:58;;;;;;;16.73;12.93;;;;;;;23.30;88.44;94961.34;5092954;28;20436;-83
2023/06/24 03:38:25;;;;;;;17.17;13.97;;;;;;;23.54;88.53;94973.28;5094815;28;20634;-79
2023/06/24 03:40:52;;;;;;;18.83;13.07;;;;;;;23.77;87.05;94972.88;5096985;28;20917;-82
2023/06/24 03:43:18;;;;;;;15.87;12.33;;;;;;;23.96;86.20;94980.03;5096610;28;20447;-81
2023/06/24 03:45:47;;;;;;;12.60;11.30;;;;;;;24.20;85.75;94988.41;5096785;28;20497;-81
2023/06/24 03:48:14;;;;;;;20.73;12.77;;;;;;;24.32;84.86;94987.59;5096330;28;20493;-81
2023/06/24 03:50:41;;;;;;;16.87;13.90;;;;;;;24.53;83.66;94994.50;5096973;28;20444;-80
2023/06/24 03:53:08;;;;;;;13.90;11.63;;;;;;;24.67;82.83;94987.22;5096397;28;20982;-83
2023/06/24 03:55:34;;;;;;;17.33;12.90;;;;;;;24.79;82.86;94987.34;5096644;28;20427;-81
2023/06/24 03:58:01;;;;;;;14.40;12.20;;;;;;;24.87;81.85;94992.47;5096963;28;20447;-82
2023/06/24 04:00:28;;;;;;;18.93;14.20;;;;;;;24.94;81.88;94991.41;5061036;28;20439;-82
2023/06/24 04:03:01;;;;;;;16.10;13.57;;;;;;;24.95;81.12;94986.84;5097113;28;20474;-82
2023/06/24 04:05:28;;;;;;;15.50;12.77;;;;;;;24.99;80.59;94988.09;5061956;28;20900;-82
2023/06/24 04:07:55;;;;;;;14.43;12.80;;;;;;;25.03;82.34;94983.94;5096376;28;20867;-84
2023/06/24 04:10:22;;;;;;;15.70;14.03;;;;;;;25.08;81.94;94981.41;5096046;28;20428;-82
2023/06/24 04:12:49;;;;;;;13.93;12.43;;;;;;;25.14;83.18;94977.84;5096116;28;20474;-82
2023/06/24 04:15:16;;;;;;;14.57;13.07;;;;;;;25.15;83.92;94974.13;5096330;28;20436;-90
2023/06/24 04:17:43;;;;;;;21.87;16.50;;;;;;;25.31;84.60;94995.09;5095912;28;20451;-81
2023/06/24 04:20:12;;;;;;;15.37;13.73;;;;;;;25.35;80.86;94990.09;5096776;28;20440;-89
2023/06/24 04:22:41;;;;;;;14.50;12.60;;;;;;;25.53;83.95;94995.53;5097316;28;20819;-90
2023/06/24 04:25:08;;;;;;;18.17;13.53;;;;;;;25.69;82.61;94987.97;5096221;28;20455;-86
2023/06/24 04:27:36;;;;;;;18.53;12.63;;;;;;;25.78;79.74;94990.19;5036515;28;20460;-87
2023/06/24 04:30:05;;;;;;;14.33;12.70;;;;;;;25.88;76.83;94986.97;5075466;28;20484;-82
2023/06/24 04:32:31;;;;;;;12.97;10.57;;;;;;;26.06;76.15;94972.72;5024821;28;20563;-84
2023/06/24 04:34:59;;;;;;;13.37;12.00;;;;;;;26.28;74.50;94981.16;5024245;28;20441;-83
2023/06/24 04:37:27;;;;;;;17.10;12.27;;;;;;;26.38;73.64;94966.16;5076200;28;20425;-84
2023/06/24 04:39:54;;;;;;;13.60;12.17;;;;;;;26.53;71.93;94971.13;5075796;28;20445;-83
2023/06/24 04:42:22;;;;;;;13.03;11.63;;;;;;;26.68;70.72;94970.75;5075945;28;20451;-85
2023/06/24 04:44:51;;;;;;;14.37;12.90;;;;;;;26.81;77.45;94966.00;5025663;28;20445;-85
2023/06/24 04:47:17;;;;;;;12.70;11.37;;;;;;;26.95;70.44;94980.09;5077014;28;20436;-87
2023/06/24 04:49:44;;;;;;;13.20;11.90;;;;;;;27.09;69.95;94976.19;5075512;28;20452;-82
2023/06/24 04:52:12;;;;;;;13.77;11.97;;;;;;;27.16;69.43;94979.59;5051622;28;20448;-86
2023/06/24 04:54:40;;;;;;;14.90;11.07;;;;;;;27.29;68.48;94978.59;5095354;28;20452;-82
2023/06/24 04:57:10;;;;;;;13.17;11.77;;;;;;;27.36;68.60;94973.09;5095562;28;20443;-81
2023/06/24 04:59:38;;;;;;;13.10;11.80;;;;;;;27.53;68.01;94984.84;5075503;28;20790;-81
2023/06/24 05:02:05;;;;;;;12.70;11.40;;;;;;;27.70;68.21;94984.97;5075067;28;20484;-81
2023/06/24 05:04:31;;;;;;;13.20;12.00;;;;;;;27.53;69.24;94978.63;5089031;28;20842;-81
2023/06/24 05:06:58;;;;;;;13.00;11.70;;;;;;;27.68;71.50;94979.81;5091499;28;20445;-81
2023/06/24 05:09:25;;;;;;;17.57;13.37;;;;;;;27.93;69.09;94978.78;5075595;28;20460;-82
2023/06/24 05:11:53;;;;;;;15.83;12.83;;;;;;;27.88;69.15;94984.06;5074914;28;20441;-82
2023/06/24 05:14:20;;;;;;;16.73;13.77;;;;;;;27.89;68.53;94989.22;5075114;28;20488;-82
2023/06/24 05:16:47;;;;;;;15.37;13.80;;;;;;;28.19;67.80;94986.38;5074751;28;20429;-81
2023/06/24 05:19:13;;;;;;;18.20;13.13;;;;;;;28.48;67.40;94989.97;5039861;28;20942;-82
2023/06/24 05:21:40;;;;;;;14.47;12.90;;;;;;;28.68;66.29;94985.00;5075175;28;20429;-81
2023/06/24 05:24:08;;;;;;;17.13;13.40;;;;;;;28.98;66.30;94979.38;5023230;28;20930;-82
2023/06/24 05:26:34;;;;;;;16.20;13.33;;;;;;;29.22;64.85;94973.88;5074671;28;20448;-81
2023/06/24 05:29:03;;;;;;;15.97;14.37;;;;;;;29.17;63.43;94969.16;5074716;28;20432;-81
2023/06/24 05:31:29;;;;;;;21.20;12.80;;;;;;;29.05;64.17;94970.31;5074330;28;20950;-81
2023/06/24 05:33:56;;;;;;;14.77;13.07;;;;;;;28.65;65.99;94965.75;5074719;28;20473;-80
2023/06/24 05:36:23;;;;;;;19.93;14.27;;;;;;;28.66;66.45;94970.91;5074355;28;20444;-81
2023/06/24 05:38:50;;;;;;;17.67;14.20;;;;;;;28.58;67.57;94975.84;5074582;28;20433;-81
2023/06/24 05:41:16;;;;;;;19.80;15.83;;;;;;;27.96;65.60;94978.28;5074215;28;20437;-80
2023/06/24 05:43:44;;;;;;;21.93;15.00;;;;;;;28.29;66.97;94978.50;5074609;28;20768;-81
2023/06/24 05:46:12;;;;;;;15.30;13.73;;;;;;;28.68;67.01;94971.50;5039193;28;20478;-81
2023/06/24 05:48:39;;;;;;;20.30;13.93;;;;;;;28.84;65.49;94969.88;5073893;28;20927;-81
2023/06/24 05:51:06;;;;;;;16.63;14.17;;;;;;;28.90;65.27;94963.53;5074539;28;20433;-81
2023/06/24 05:53:33;;;;;;;15.47;13.90;;;;;;;28.94;64.87;94966.63;5074122;28;20480;-81
2023/06/24 05:55:59;;;;;;;15.47;13.80;;;;;;;29.04;64.80;94964.09;5073909;28;20441;-81
2023/06/24 05:58:26;;;;;;;16.40;14.47;;;;;;;29.32;65.09;94965.09;5074122;28;20822;-81
2023/06/24 06:00:55;;;;;;;17.87;15.37;;;;;;;29.53;62.64;94972.53;5073559;28;20480;-81
2023/06/24 06:03:23;;;;;;;18.03;14.60;;;;;;;29.66;62.72;94963.25;5073700;28;20870;-81
2023/06/24 06:05:50;;;;;;;15.67;13.43;;;;;;;29.20;62.48;94954.34;5074008;28;20460;-81
2023/06/24 06:08:16;;;;;;;15.60;13.90;;;;;;;29.33;62.20;94955.94;5039107;28;20957;-81
2023/06/24 06:10:43;;;;;;;17.90;13.83;;;;;;;29.62;63.64;94954.81;5074022;28;20441;-81
2023/06/24 06:13:10;;;;;;;16.73;14.77;;;;;;;29.56;62.66;94959.31;5021778;28;20488;-81
2023/06/24 06:15:37;;;;;;;19.33;13.97;;;;;;;29.64;63.14;94958.09;5038539;28;20448;-81
2023/06/24 06:18:04;;;;;;;16.70;14.83;;;;;;;29.86;62.89;94947.34;5072483;28;20445;-81
2023/06/24 06:20:32;;;;;;;16.43;14.47;;;;;;;30.15;61.20;94956.16;5072802;28;20440;-80
2023/06/24 06:22:59;;;;;;;14.40;13.00;;;;;;;30.23;62.14;94950.31;5072693;28;20444;-80
2023/06/24 06:25:26;;;;;;;15.27;13.60;;;;;;;30.38;60.67;94955.09;5072289;28;20453;-82
2023/06/24 06:27:52;;;;;;;23.00;14.53;;;;;;;30.66;61.15;94949.53;5071220;28;20810;-81
2023/06/24 06:30:19;;;;;;;15.20;13.60;;;;;;;30.60;60.60;94957.78;5073677;28;20470;-81
2023/06/24 06:32:46;;;;;;;16.43;14.47;;;;;;;30.36;59.91;94951.81;5073993;28;20474;-83
2023/06/24 06:35:13;;;;;;;16.33;14.30;;;;;;;30.42;61.70;94948.13;5074534;28;20425;-84
2023/06/24 06:37:41;;;;;;;15.63;13.87;;;;;;;30.19;61.03;94950.00;5073656;28;20424;-84
2023/06/24 06:40:09;;;;;;;16.37;12.73;;;;;;;30.34;62.00;94953.94;5073649;28;20444;-83
2023/06/24 06:42:36;;;;;;;15.73;13.80;;;;;;;30.47;61.22;94950.88;5073999;28;20930;-87
2023/06/24 06:45:02;;;;;;;16.40;14.80;;;;;;;30.78;62.10;94955.59;5073883;28;20441;-84
2023/06/24 06:47:29;;;;;;;16.43;14.73;;;;;;;30.81;60.41;94952.38;5038333;28;20923;-84
2023/06/24 06:49:56;;;;;;;15.17;13.63;;;;;;;31.00;59.50;94958.28;5038588;28;20778;-84
2023/06/24 06:52:23;;;;;;;19.60;14.93;;;;;;;31.22;59.07;94960.94;5073614;28;20433;-83
2023/06/24 06:54:51;;;;;;;15.73;13.53;;;;;;;31.51;59.25;94966.09;5038156;28;20507;-84
2023/06/24 07:00:39;;;;;;;14.90;13.37;;;;;;;31.47;59.06;94962.25;5072814;28;20486;-84
2023/06/24 07:03:06;;;;;;;15.83;13.70;;;;;;;31.09;60.00;94956.75;5037857;28;20966;-85
2023/06/24 07:05:33;;;;;;;19.50;13.50;;;;;;;31.17;59.79;94960.91;5073424;28;20437;-84
2023/06/24 07:08:00;;;;;;;14.80;12.43;;;;;;;31.41;59.19;94958.69;5038549;28;20877;-83
2023/06/24 07:10:28;;;;;;;13.93;12.53;;;;;;;31.60;58.73;94959.13;5073400;28;20429;-82
2023/06/24 07:12:57;;;;;;;16.10;14.23;;;;;;;31.87;59.46;94970.75;5039485;28;20528;-81
2023/06/24 07:15:25;;;;;;;14.50;13.10;;;;;;;32.09;57.84;94962.47;5077530;28;20846;-83
2023/06/24 07:17:52;;;;;;;15.20;13.70;;;;;;;32.11;56.97;94960.31;5076996;28;20914;-82
2023/06/24 07:23:41;;;;;;;17.83;13.13;;;;;;;32.33;56.06;94968.34;5076995;28;20893;-81
2023/06/24 07:26:09;;;;;;;17.77;12.60;;;;;;;32.46;56.04;94967.88;5076627;28;20432;-82
2023/06/24 07:28:36;;;;;;;14.27;12.73;;;;;;;32.35;56.39;94968.88;5075573;28;20441;-81
2023/06/24 07:31:03;;;;;;;15.17;13.70;;;;;;;32.40;55.69;94966.22;5075715;28;20503;-81
2023/06/24 07:33:30;;;;;;;13.80;11.90;;;;;;;32.57;56.68;94960.56;5076022;28;20804;-83
2023/06/24 07:35:57;;;;;;;14.23;12.60;;;;;;;32.72;54.57;94952.47;5075556;28;20943;-82
2023/06/24 07:38:24;;;;;;;13.07;11.67;;;;;;;32.71;54.63;94958.19;5075497;28;20448;-81
2023/06/24 07:40:51;;;;;;;30.80;13.10;;;;;;;32.26;56.23;94955.00;5075451;28;20448;-82
2023/06/24 07:43:19;;;;;;;13.63;12.23;;;;;;;32.41;54.81;94953.44;5075617;28;20483;-82
2023/06/24 07:45:46;;;;;;;14.90;12.93;;;;;;;32.54;54.79;94953.75;5075518;28;20926;-82
2023/06/24 07:48:12;;;;;;;13.50;12.30;;;;;;;32.66;56.19;94956.25;5075592;28;20926;-82
2023/06/24 07:50:40;;;;;;;13.67;12.37;;;;;;;32.79;54.30;94949.53;5040126;28;20452;-82
2023/06/24 07:53:06;;;;;;;13.97;12.57;;;;;;;32.70;55.49;94951.13;5075181;28;20559;-82
2023/06/24 07:55:33;;;;;;;13.93;12.53;;;;;;;31.65;56.18;94956.44;5075424;28;20447;-81
2023/06/24 07:58:00;;;;;;;18.40;13.07;;;;;;;31.72;57.95;94952.44;5075384;28;20464;-81
2023/06/24 08:00:28;;;;;;;16.60;13.17;;;;;;;31.66;56.28;94952.66;5075093;28;20460;-81
2023/06/24 08:02:56;;;;;;;14.80;13.40;;;;;;;31.84;57.05;94965.84;5075460;28;20829;-82
2023/06/24 08:05:23;;;;;;;16.80;15.20;;;;;;;32.01;57.45;94963.78;5075054;28;20475;-82
2023/06/24 08:07:49;;;;;;;20.57;13.00;;;;;;;32.25;55.96;94960.66;5075351;28;20444;-82
2023/06/24 08:10:16;;;;;;;14.03;12.57;;;;;;;32.38;54.75;94965.63;5075404;28;20449;-82
2023/06/24 08:12:43;;;;;;;14.03;12.53;;;;;;;32.40;55.36;94971.66;5075211;28;20452;-82
2023/06/24 08:15:11;;;;;;;16.43;12.80;;;;;;;32.61;54.91;94972.53;5074897;28;21015;-81
2023/06/24 08:17:39;;;;;;;14.80;13.40;;;;;;;32.70;54.43;94960.09;5075071;28;20445;-82
2023/06/24 08:20:06;;;;;;;15.67;13.07;;;;;;;32.65;55.19;94960.84;5074966;28;20440;-82
2023/06/24 08:22:33;;;;;;;14.93;12.97;;;;;;;32.81;55.87;94958.25;5075472;28;20449;-84
2023/06/24 08:25:00;;;;;;;15.43;13.83;;;;;;;32.85;54.57;94956.63;5075588;28;20428;-82
2023/06/24 08:27:27;;;;;;;15.10;13.73;;;;;;;32.90;55.29;94949.28;5080082;28;20441;-83
2023/06/24 08:29:53;;;;;;;15.90;13.07;;;;;;;32.92;55.29;94947.13;5041383;28;20511;-80
2023/06/24 08:32:20;;;;;;;14.30;12.83;;;;;;;32.93;54.53;94950.66;5077158;28;20502;-86
2023/06/24 08:34:48;;;;;;;16.27;14.57;;;;;;;32.95;53.66;94949.28;5075860;28;20476;-82
2023/06/24 08:37:15;;;;;;;15.13;12.17;;;;;;;32.70;53.81;94945.69;5040715;28;20448;-81
2023/06/24 08:39:42;;;;;;;13.40;12.10;;;;;;;32.29;54.51;94943.59;5075801;28;20534;-82
2023/06/24 08:42:09;;;;;;;14.10;12.67;;;;;;;31.95;56.62;94936.88;5075890;28;20437;-80
2023/06/24 08:44:36;;;;;;;15.00;13.50;;;;;;;31.35;57.03;94936.13;5075352;28;20437;-81
2023/06/24 08:47:03;;;;;;;14.47;13.20;;;;;;;31.41;58.53;94932.38;5075531;28;20460;-81
2023/06/24 08:49:31;;;;;;;14.03;12.17;;;;;;;31.55;57.50;94931.97;5075887;28;20445;-81
2023/06/24 08:52:03;;;;;;;13.50;12.20;;;;;;;31.64;57.65;94909.50;5039392;28;20938;-82
2023/06/24 08:54:35;;;;;;;19.13;13.20;;;;;;;31.88;57.28;94922.72;5074176;28;20468;-81
2023/06/24 08:57:04;;;;;;;15.37;13.87;;;;;;;31.66;56.37;94922.81;5073891;28;20441;-81
2023/06/24 08:59:31;;;;;;;13.27;11.97;;;;;;;31.93;58.75;94920.03;5074065;28;20441;-82
2023/06/24 09:01:58;;;;;;;14.67;12.37;;;;;;;31.97;59.07;94916.53;5073543;28;20476;-81
2023/06/24 09:04:25;;;;;;;13.07;11.80;;;;;;;32.08;55.56;94919.28;5073909;28;20445;-81
2023/06/24 09:06:52;;;;;;;13.60;12.30;;;;;;;32.22;54.81;94920.44;5073975;28;20433;-81
2023/06/24 09:09:21;;;;;;;19.40;12.57;;;;;;;32.34;54.42;94921.88;5038616;28;20812;-80
2023/06/24 09:11:54;;;;;;;13.97;12.60;;;;;;;32.22;55.52;94921.28;5073807;28;20806;-80
2023/06/24 09:14:21;;;;;;;13.70;12.40;;;;;;;32.03;56.53;94915.47;5073438;28;20487;-80
2023/06/24 09:16:56;;;;;;;13.83;12.20;;;;;;;31.76;56.75;94919.38;5073631;28;20441;-80
2023/06/24 09:19:24;;;;;;;13.17;11.50;;;;;;;31.95;56.87;94913.25;5074248;28;20455;-81
2023/06/24 09:21:51;;;;;;;12.90;11.53;;;;;;;31.69;55.95;94919.56;5073826;28;20796;-82
2023/06/24 09:24:18;;;;;;;15.83;14.07;;;;;;;31.93;55.38;94920.84;5073816;28;20449;-81
2023/06/24 09:26:46;;;;;;;13.47;12.17;;;;;;;31.92;54.86;94912.97;5073725;28;20449;-80
2023/06/24 09:29:14;;;;;;;12.60;11.30;;;;;;;32.05;56.37;94910.59;5073491;28;20804;-80
2023/06/24 09:31:48;;;;;;;17.33;11.80;;;;;;;32.22;56.11;94918.56;5073153;28;20510;-81
2023/06/24 09:34:15;;;;;;;17.20;12.10;;;;;;;32.23;56.23;94920.19;5073283;28;20495;-80
2023/06/24 09:36:46;;;;;;;12.10;11.00;;;;;;;31.96;53.53;94919.50;5020473;28;20949;-81
2023/06/24 09:39:13;;;;;;;14.40;13.03;;;;;;;31.95;54.59;94924.09;5073200;28;20448;-80
2023/06/24 09:41:43;;;;;;;12.67;11.43;;;;;;;31.58;54.24;94923.28;5073363;28;20441;-80
2023/06/24 09:44:12;;;;;;;15.07;13.57;;;;;;;31.61;55.60;94922.78;5073084;28;20437;-81
2023/06/24 09:46:39;;;;;;;16.57;13.33;;;;;;;31.64;56.09;94919.53;5073284;28;20450;-80
2023/06/24 09:49:06;;;;;;;13.00;11.10;;;;;;;31.70;57.23;94921.19;5073190;28;20858;-80
2023/06/24 09:51:38;;;;;;;13.83;12.50;;;;;;;31.66;55.56;94920.91;5072960;28;20460;-80
2023/06/24 09:54:07;;;;;;;13.00;11.70;;;;;;;31.55;55.09;94916.50;5072708;28;20484;-80
2023/06/24 09:56:37;;;;;;;13.17;11.87;;;;;;;31.60;55.28;94918.41;5072825;28;20445;-81
2023/06/24 09:59:05;;;;;;;14.60;11.33;;;;;;;31.56;55.95;94917.31;5072772;28;20487;-80
2023/06/24 10:01:37;;;;;;;14.53;13.13;;;;;;;31.49;56.46;94912.09;5072540;28;20484;-80
2023/06/24 10:04:05;;;;;;;13.13;11.33;;;;;;;31.53;56.67;94909.69;5072631;28;20453;-80
2023/06/24 10:06:33;;;;;;;13.93;12.37;;;;;;;31.65;60.30;94904.88;5037807;28;20440;-80
2023/06/24 10:09:01;;;;;;;14.73;13.23;;;;;;;31.73;56.60;94910.66;5072921;28;20841;-80
2023/06/24 10:11:28;;;;;;;14.30;11.17;;;;;;;31.68;54.15;94901.66;5072779;28;20444;-80
2023/06/24 10:13:55;;;;;;;13.33;12.13;;;;;;;31.39;53.16;94893.84;5072536;28;20482;-80
2023/06/24 10:16:22;;;;;;;16.80;11.50;;;;;;;31.50;53.98;94889.31;5072510;28;20471;-80
2023/06/24 10:18:50;;;;;;;14.93;10.67;;;;;;;31.46;54.30;94890.09;5037109;28;20958;-81
2023/06/24 10:21:17;;;;;;;13.80;11.20;;;;;;;31.52;56.04;94879.03;5072636;28;20445;-82
2023/06/24 10:23:52;;;;;;;12.00;10.80;;;;;;;31.41;54.13;94875.41;5072832;28;20627;-82
2023/06/24 10:26:25;;;;;;;15.50;11.87;;;;;;;31.31;55.35;94859.09;5072672;28;20840;-81
2023/06/24 10:29:13;;;;;;;14.47;10.67;;;;;;;31.40;57.44;94857.50;5073796;28;20452;-82
2023/06/24 10:31:54;;;;;;;13.60;11.43;;;;;;;31.50;55.32;94861.38;5073991;28;20449;-83
2023/06/24 10:34:47;;;;;;;13.63;12.23;;;;;;;31.43;56.59;94850.75;5073911;28;20484;-81
2023/06/24 10:37:18;;;;;;;17.07;11.73;;;;;;;31.35;54.75;94843.91;5011801;28;20440;-81
2023/06/24 10:39:50;;;;;;;10.83;9.73;;;;;;;31.30;52.67;94852.03;5011655;28;20466;-82
2023/06/24 10:42:27;;;;;;;12.57;11.30;;;;;;;31.40;55.42;94830.38;5011584;28;20455;-81
2023/06/24 10:44:55;;;;;;;13.23;10.77;;;;;;;31.61;54.26;94825.91;5011852;28;20454;-82
2023/06/24 10:47:23;;;;;;;11.83;10.67;;;;;;;31.83;53.74;94828.50;5011688;28;20451;-81
2023/06/24 10:49:52;;;;;;;10.90;9.90;;;;;;;31.61;54.14;94825.91;5011444;28;20525;-81
2023/06/24 10:52:20;;;;;;;10.80;9.57;;;;;;;31.73;57.35;94817.59;5011125;28;20451;-81
2023/06/24 10:54:47;;;;;;;11.50;10.40;;;;;;;31.75;54.38;94818.13;5009767;28;20483;-81
2023/06/24 10:57:14;;;;;;;11.80;10.70;;;;;;;31.87;54.35;94813.31;5009978;28;20452;-82
2023/06/24 10:59:41;;;;;;;11.33;10.33;;;;;;;31.74;51.34;94813.78;4993489;28;20450;-83
2023/06/24 11:02:09;;;;;;;10.80;9.70;;;;;;;31.50;50.65;94816.06;5009911;28;20475;-83
2023/06/24 11:04:44;;;;;;;12.83;9.07;;;;;;;31.65;50.53;94809.91;5009551;28;20534;-83
2023/06/24 11:07:12;;;;;;;12.00;10.70;;;;;;;31.91;50.73;94813.59;5009910;28;20451;-84
2023/06/24 11:09:39;;;;;;;12.63;9.57;;;;;;;31.97;51.00;94805.22;5028294;28;20450;-83
2023/06/24 11:12:07;;;;;;;11.23;10.07;;;;;;;31.78;49.75;94804.03;5031251;28;20442;-82
2023/06/24 11:14:35;;;;;;;11.50;9.67;;;;;;;31.79;50.56;94800.25;5081911;28;20488;-81
2023/06/24 11:17:02;;;;;;;11.43;10.27;;;;;;;31.91;49.98;94802.75;5057291;28;20938;-81
2023/06/24 11:19:30;;;;;;;11.30;9.73;;;;;;;32.10;51.28;94801.19;5091989;28;20493;-81
2023/06/24 11:22:00;;;;;;;11.90;10.47;;;;;;;32.20;52.63;94811.28;5091855;28;20443;-81
2023/06/24 11:24:28;;;;;;;12.10;10.83;;;;;;;31.95;51.19;94809.28;5092190;28;20467;-79
2023/06/24 11:26:55;;;;;;;10.80;9.80;;;;;;;32.04;48.85;94807.69;5091636;28;20443;-79
2023/06/24 11:29:22;;;;;;;10.77;9.87;;;;;;;31.86;48.46;94810.88;5091910;28;20440;-80
2023/06/24 11:31:50;;;;;;;13.30;10.27;;;;;;;32.02;48.08;94807.94;5039370;28;20942;-80
2023/06/24 11:34:17;;;;;;;14.00;10.47;;;;;;;32.12;47.61;94814.50;5091903;28;20444;-81
2023/06/24 11:36:44;;;;;;;10.07;9.07;;;;;;;32.32;48.49;94812.69;5092116;28;20447;-81